createdAt,value
2022-12-20T00:00:52.314Z,101115.78
2022-12-20T00:03:20.173Z,101123.81
2022-12-20T00:05:47.130Z,101127.22
2022-12-20T00:08:13.706Z,101115.44
2022-12-20T00:10:43.036Z,101124.66
2022-12-20T00:13:10.527Z,101118.53
2022-12-20T00:15:37.252Z,101113.72
2022-12-20T00:18:04.568Z,101112.53
2022-12-20T00:20:31.171Z,101106.47
2022-12-20T00:22:57.692Z,101118.75
2022-12-20T00:25:24.317Z,101114.81
2022-12-20T00:27:51.202Z,101110.53
2022-12-20T00:30:18.340Z,101110.38
2022-12-20T00:32:45.639Z,101105.06
2022-12-20T00:35:12.393Z,101101.47
2022-12-20T00:37:38.933Z,101088.66
2022-12-20T00:40:06.421Z,101085.75
2022-12-20T00:42:33.259Z,101085.56
2022-12-20T00:45:00.111Z,101078.41
2022-12-20T00:47:26.533Z,101082.16
2022-12-20T00:49:52.950Z,101079.81
2022-12-20T00:52:19.491Z,101058.28
2022-12-20T00:54:45.925Z,101064.09
2022-12-20T00:57:12.459Z,101068.75
2022-12-20T00:59:39.002Z,101063.44
2022-12-20T01:02:05.684Z,101063.75
2022-12-20T01:04:32.283Z,101060.34
2022-12-20T01:06:58.707Z,101056.56
2022-12-20T01:09:25.234Z,101043.75
2022-12-20T01:11:51.766Z,101050.94
2022-12-20T01:14:18.464Z,101025.72
2022-12-20T01:16:46.507Z,101030.47
2022-12-20T01:19:15.514Z,101032.47
2022-12-20T01:21:44.903Z,101052.94
2022-12-20T01:24:12.967Z,101045.03
2022-12-20T01:26:39.401Z,101051.16
2022-12-20T01:29:05.853Z,101042.56
2022-12-20T01:31:32.475Z,101049.75
2022-12-20T01:33:59.797Z,101029.75
2022-12-20T01:36:31.721Z,101047.41
2022-12-20T01:39:03.580Z,101048.25
2022-12-20T01:41:32.716Z,101036.94
2022-12-20T01:44:00.290Z,101028.50
2022-12-20T01:46:32.351Z,101025.44
2022-12-20T01:49:01.801Z,101016.53
2022-12-20T01:51:30.904Z,101010.03
2022-12-20T01:54:07.521Z,101018.25
2022-12-20T01:56:34.918Z,101017.56
2022-12-20T01:59:02.037Z,101002.84
2022-12-20T02:01:28.545Z,101008.31
2022-12-20T02:03:56.280Z,100998.22
2022-12-20T02:06:25.968Z,101005.03
2022-12-20T02:08:55.555Z,101005.88
2022-12-20T02:11:57.077Z,101009.66
2022-12-20T02:14:49.168Z,101016.16
2022-12-20T02:17:28.506Z,101020.97
2022-12-20T02:20:32.733Z,101018.25
2022-12-20T02:23:40.876Z,101004.56
2022-12-20T02:26:31.135Z,101003.88
2022-12-20T02:29:23.508Z,100995.66
2022-12-20T02:32:30.882Z,101008.72
2022-12-20T02:34:57.328Z,100994.00
2022-12-20T02:37:24.149Z,100995.31
2022-12-20T02:39:52.527Z,100998.69
2022-12-20T02:42:23.675Z,100997.47
2022-12-20T02:45:16.423Z,100996.63
2022-12-20T02:48:00.683Z,100994.72
2022-12-20T02:50:35.782Z,100999.16
2022-12-20T02:53:02.964Z,101017.78
2022-12-20T02:55:40.988Z,101013.63
2022-12-20T02:58:17.858Z,101006.06
2022-12-20T03:00:47.022Z,101016.47
2022-12-20T03:03:23.018Z,101015.22
2022-12-20T03:05:52.443Z,101017.78
2022-12-20T03:08:20.195Z,101011.28
2022-12-20T03:10:47.755Z,100998.22
2022-12-20T03:13:14.534Z,100994.47
2022-12-20T03:15:40.981Z,100993.59
2022-12-20T03:18:07.702Z,100991.50
2022-12-20T03:20:34.602Z,100981.88
2022-12-20T03:23:01.046Z,100979.81
2022-12-20T03:25:27.516Z,100972.25
2022-12-20T03:27:54.056Z,100983.88
2022-12-20T03:30:20.566Z,100975.25
2022-12-20T03:32:46.934Z,100970.63
2022-12-20T03:35:13.668Z,100981.38
2022-12-20T03:37:40.178Z,100987.72
2022-12-20T03:40:07.440Z,100981.22
2022-12-20T03:42:34.398Z,100983.09
2022-12-20T03:45:00.821Z,100994.22
2022-12-20T03:47:27.311Z,100995.09
2022-12-20T03:49:53.857Z,100990.28
2022-12-20T03:52:20.241Z,100988.38
2022-12-20T03:54:46.773Z,100989.59
2022-12-20T03:57:13.202Z,100989.59
2022-12-20T03:59:39.713Z,100987.16
2022-12-20T04:02:06.286Z,100983.84
2022-12-20T04:04:32.795Z,100975.22
2022-12-20T04:06:59.237Z,100965.13
2022-12-20T04:09:25.716Z,100962.19
2022-12-20T04:11:53.272Z,100972.97
2022-12-20T04:14:19.776Z,100976.53
2022-12-20T04:16:46.311Z,101000.34
2022-12-20T04:19:12.804Z,100987.31
2022-12-20T04:21:39.364Z,100972.97
2022-12-20T04:24:06.539Z,100970.00
2022-12-20T04:26:33.063Z,100962.63
2022-12-20T04:28:59.524Z,100967.25
2022-12-20T04:31:26.040Z,100960.97
2022-12-20T04:33:52.792Z,100953.78
2022-12-20T04:36:19.821Z,100958.22
2022-12-20T04:38:46.243Z,100962.00
2022-12-20T04:41:22.500Z,100955.66
2022-12-20T04:43:54.323Z,100966.81
2022-12-20T04:46:22.278Z,100964.28
2022-12-20T04:48:58.481Z,100949.31
2022-12-20T04:51:25.830Z,100943.44
2022-12-20T04:53:52.262Z,100950.63
2022-12-20T04:56:28.267Z,100942.25
2022-12-20T04:58:56.957Z,100933.41
2022-12-20T05:01:23.674Z,100928.59
2022-12-20T05:03:50.631Z,100932.66
2022-12-20T05:06:17.886Z,100933.13
2022-12-20T05:08:44.729Z,100951.06
2022-12-20T05:11:11.408Z,100947.06
2022-12-20T05:13:37.891Z,100923.91
2022-12-20T05:16:04.659Z,100937.88
2022-12-20T05:18:31.794Z,100922.72
2022-12-20T05:21:18.369Z,100918.59
2022-12-20T05:24:03.900Z,100927.09
2022-12-20T05:26:34.043Z,100913.06
2022-12-20T05:29:00.444Z,100921.16
2022-12-20T05:31:27.010Z,100912.38
2022-12-20T05:33:54.271Z,100906.75
2022-12-20T05:36:21.135Z,100903.00
2022-12-20T05:38:47.626Z,100906.03
2022-12-20T05:41:14.069Z,100909.69
2022-12-20T05:43:40.521Z,100902.47
2022-12-20T05:46:07.218Z,100906.09
2022-12-20T05:48:34.048Z,100898.53
2022-12-20T05:51:01.297Z,100890.94
2022-12-20T05:53:27.777Z,100906.56
2022-12-20T05:55:54.692Z,100896.41
2022-12-20T05:58:21.364Z,100893.91
2022-12-20T06:00:47.782Z,100900.25
2022-12-20T06:03:18.895Z,100903.63
2022-12-20T06:05:46.498Z,100912.25
2022-12-20T06:08:13.688Z,100910.38
2022-12-20T06:10:41.991Z,100920.50
2022-12-20T06:13:10.087Z,100922.38
2022-12-20T06:15:38.151Z,100916.63
2022-12-20T06:18:04.800Z,100913.25
2022-12-20T06:20:31.367Z,100911.28
2022-12-20T06:22:58.177Z,100912.72
2022-12-20T06:25:24.619Z,100907.66
2022-12-20T06:27:51.143Z,100901.72
2022-12-20T06:30:18.399Z,100902.97
2022-12-20T06:32:44.937Z,100902.53
2022-12-20T06:35:11.461Z,100898.25
2022-12-20T06:37:40.411Z,100894.03
2022-12-20T06:40:09.519Z,100886.03
2022-12-20T06:42:36.053Z,100893.59
2022-12-20T06:45:02.736Z,100891.03
2022-12-20T06:47:29.207Z,100877.53
2022-12-20T06:49:55.610Z,100880.47
2022-12-20T06:52:22.064Z,100885.50
2022-12-20T06:54:48.486Z,100892.25
2022-12-20T06:57:14.938Z,100895.16
2022-12-20T06:59:42.388Z,100894.13
2022-12-20T07:02:11.841Z,100879.16
2022-12-20T07:04:38.411Z,100880.00
2022-12-20T07:07:05.077Z,100867.38
2022-12-20T07:09:31.692Z,100869.25
2022-12-20T07:11:58.293Z,100864.41
2022-12-20T07:14:24.784Z,100858.06
2022-12-20T07:16:52.606Z,100846.06
2022-12-20T07:19:19.168Z,100841.19
2022-12-20T07:21:47.473Z,100829.63
2022-12-20T07:24:14.087Z,100821.41
2022-12-20T07:26:40.535Z,100821.22
2022-12-20T07:29:11.907Z,100828.78
2022-12-20T07:31:41.616Z,100822.44
2022-12-20T07:34:08.099Z,100816.75
2022-12-20T07:36:34.855Z,100811.28
2022-12-20T07:39:01.509Z,100813.84
2022-12-20T07:41:28.010Z,100810.03
2022-12-20T07:43:54.477Z,100819.09
2022-12-20T07:46:21.611Z,100819.53
2022-12-20T07:48:48.191Z,100831.38
2022-12-20T07:51:19.006Z,100822.72
2022-12-20T07:53:50.065Z,100829.47
2022-12-20T07:56:19.646Z,100847.59
2022-12-20T07:58:46.099Z,100850.53
2022-12-20T08:01:13.284Z,100851.81
2022-12-20T08:03:47.599Z,100840.81
2022-12-20T08:06:16.189Z,100842.13
2022-12-20T08:08:50.232Z,100825.00
2022-12-20T08:11:18.292Z,100825.00
2022-12-20T08:13:46.870Z,100818.91
2022-12-20T08:16:13.952Z,100824.63
2022-12-20T08:18:40.457Z,100815.16
2022-12-20T08:21:07.010Z,100820.88
2022-12-20T08:23:33.451Z,100828.31
2022-12-20T08:26:03.220Z,100830.03
2022-12-20T08:28:29.883Z,100827.06
2022-12-20T08:31:04.071Z,100815.72
2022-12-20T08:33:31.941Z,100814.22
2022-12-20T08:36:04.399Z,100805.59
2022-12-20T08:38:31.961Z,100808.34
2022-12-20T08:41:05.038Z,100808.16
2022-12-20T08:43:32.918Z,100805.22
2022-12-20T08:46:00.692Z,100797.22
2022-12-20T08:48:27.935Z,100796.56
2022-12-20T08:50:58.622Z,100808.00
2022-12-20T08:53:25.338Z,100813.09
2022-12-20T08:55:51.805Z,100812.47
2022-12-20T08:58:18.344Z,100813.31
2022-12-20T09:00:45.400Z,100805.75
2022-12-20T09:03:13.928Z,100814.59
2022-12-20T09:05:45.412Z,100803.84
2022-12-20T09:08:12.096Z,100816.31
2022-12-20T09:10:38.546Z,100804.09
2022-12-20T09:13:05.039Z,100817.41
2022-12-20T09:15:31.831Z,100804.94
2022-12-20T09:17:58.320Z,100812.09
2022-12-20T09:20:25.585Z,100816.38
2022-12-20T09:22:51.989Z,100820.16
2022-12-20T09:25:18.415Z,100815.09
2022-12-20T09:27:45.183Z,100818.50
2022-12-20T09:30:11.937Z,100811.72
2022-12-20T09:32:38.350Z,100816.13
2022-12-20T09:35:05.524Z,100807.88
2022-12-20T09:37:32.566Z,100796.09
2022-12-20T09:39:59.170Z,100797.97
2022-12-20T09:42:28.510Z,100801.13
2022-12-20T09:45:03.536Z,100810.84
2022-12-20T09:47:34.582Z,100803.66
2022-12-20T09:50:02.345Z,100816.34
2022-12-20T09:52:57.838Z,100812.94
2022-12-20T09:55:36.870Z,100822.25
2022-12-20T09:58:40.635Z,100813.19
2022-12-20T10:01:24.914Z,100810.44
2022-12-20T10:03:54.416Z,100819.09
2022-12-20T10:06:29.055Z,100808.31
2022-12-20T10:09:05.606Z,100807.88
2022-12-20T10:11:50.525Z,100805.56
2022-12-20T10:14:35.701Z,100811.31
2022-12-20T10:17:05.349Z,100814.47
2022-12-20T10:19:56.469Z,100797.97
2022-12-20T10:22:46.100Z,100813.00
2022-12-20T10:25:22.955Z,100800.97
2022-12-20T10:27:52.179Z,100802.00
2022-12-20T10:30:21.460Z,100796.09
2022-12-20T10:32:50.501Z,100778.75
2022-12-20T10:35:28.964Z,100777.50
2022-12-20T10:38:07.991Z,100770.50
2022-12-20T10:41:18.630Z,100777.25
2022-12-20T10:43:25.855Z,100782.56
2022-12-20T10:46:12.055Z,100774.50
2022-12-20T10:48:41.145Z,100783.81
2022-12-20T10:51:15.478Z,100773.28
2022-12-20T10:53:59.415Z,100770.28
2022-12-20T10:56:28.374Z,100765.63
2022-12-20T10:59:17.678Z,100760.75
2022-12-20T11:01:46.720Z,100767.13
2022-12-20T11:04:32.354Z,100772.19
2022-12-20T11:07:01.339Z,100765.19
2022-12-20T11:09:33.258Z,100767.75
2022-12-20T11:12:14.382Z,100763.53
2022-12-20T11:14:42.837Z,100763.53
2022-12-20T11:17:33.073Z,100758.03
2022-12-20T11:20:21.121Z,100760.34
2022-12-20T11:22:56.410Z,100760.75
2022-12-20T11:25:31.650Z,100752.94
2022-12-20T11:28:19.199Z,100736.00
2022-12-20T11:31:18.220Z,100730.91
2022-12-20T11:34:28.860Z,100726.69
2022-12-20T11:37:18.629Z,100732.84
2022-12-20T11:39:57.313Z,100731.38
2022-12-20T11:42:24.036Z,100729.66
2022-12-20T11:45:08.325Z,100739.38
2022-12-20T11:47:55.787Z,100716.09
2022-12-20T11:50:35.932Z,100700.84
2022-12-20T11:53:42.098Z,100707.59
2022-12-20T11:56:23.966Z,100706.72
2022-12-20T11:58:57.575Z,100697.38
2022-12-20T12:01:40.653Z,100693.78
2022-12-20T12:04:14.486Z,100682.97
2022-12-20T12:07:03.281Z,100677.44
2022-12-20T12:09:40.744Z,100679.53
2022-12-20T12:12:33.671Z,100672.31
2022-12-20T12:15:17.911Z,100665.09
2022-12-20T12:18:25.063Z,100654.91
2022-12-20T12:21:06.661Z,100650.66
2022-12-20T12:24:14.618Z,100646.59
2022-12-20T12:26:41.430Z,100643.75
2022-12-20T12:29:16.964Z,100640.72
2022-12-20T12:31:50.823Z,100620.94
2022-12-20T12:34:36.250Z,100629.16
2022-12-20T12:37:36.861Z,100617.91
2022-12-20T12:40:31.173Z,100614.19
2022-12-20T12:43:09.664Z,100615.16
2022-12-20T12:45:43.515Z,100611.94
2022-12-20T12:48:18.847Z,100610.84
2022-12-20T12:50:48.662Z,100611.88
2022-12-20T12:53:32.390Z,100624.59
2022-12-20T12:56:19.112Z,100620.13
2022-12-20T12:59:05.734Z,100620.97
2022-12-20T13:01:55.960Z,100619.06
2022-12-20T13:04:29.045Z,100620.53
2022-12-20T13:07:22.962Z,100618.84
2022-12-20T13:09:49.502Z,100627.34
2022-12-20T13:12:37.747Z,100622.69
2022-12-20T13:15:22.510Z,100625.81
2022-12-20T13:17:58.726Z,100617.31
2022-12-20T13:20:34.097Z,100615.22
2022-12-20T13:23:15.322Z,100616.03
2022-12-20T13:25:45.230Z,100614.97
2022-12-20T13:28:23.551Z,100608.16
2022-12-20T13:31:02.225Z,100593.53
2022-12-20T13:33:47.825Z,100596.50
2022-12-20T13:36:17.459Z,100592.69
2022-12-20T13:38:46.901Z,100599.06
2022-12-20T13:41:35.052Z,100599.88
2022-12-20T13:44:26.942Z,100600.72
2022-12-20T13:47:28.333Z,100601.56
2022-12-20T13:49:54.816Z,100595.19
2022-12-20T13:52:42.451Z,100601.34
2022-12-20T13:55:22.935Z,100601.94
2022-12-20T13:57:49.548Z,100596.34
2022-12-20T14:00:19.366Z,100591.16
2022-12-20T14:02:46.239Z,100585.41
2022-12-20T14:05:28.540Z,100590.19
2022-12-20T14:08:17.524Z,100586.00
2022-12-20T14:10:44.203Z,100576.34
2022-12-20T14:13:22.925Z,100587.28
2022-12-20T14:15:50.093Z,100594.75
2022-12-20T14:18:23.922Z,100588.28
2022-12-20T14:20:55.256Z,100583.69
2022-12-20T14:23:24.956Z,100572.59
2022-12-20T14:26:01.439Z,100570.44
2022-12-20T14:28:40.437Z,100564.91
2022-12-20T14:31:22.329Z,100568.81
2022-12-20T14:33:50.381Z,100569.03
2022-12-20T14:36:16.788Z,100566.13
2022-12-20T14:38:46.332Z,100583.66
2022-12-20T14:41:43.844Z,100575.13
2022-12-20T14:44:17.226Z,100580.59
2022-12-20T14:46:49.542Z,100571.31
2022-12-20T14:49:25.886Z,100557.38
2022-12-20T14:51:53.618Z,100549.16
2022-12-20T14:55:05.577Z,100557.91
2022-12-20T14:57:23.734Z,100553.09
2022-12-20T15:00:01.281Z,100554.41
2022-12-20T15:02:42.140Z,100570.59
2022-12-20T15:05:35.182Z,100571.00
2022-12-20T15:08:16.875Z,100577.84
2022-12-20T15:10:49.406Z,100579.97
2022-12-20T15:13:17.456Z,100569.41
2022-12-20T15:15:44.003Z,100567.09
2022-12-20T15:18:14.999Z,100569.47
2022-12-20T15:20:43.088Z,100562.97
2022-12-20T15:23:17.723Z,100568.34
2022-12-20T15:25:45.568Z,100564.81
2022-12-20T15:28:18.410Z,100559.13
2022-12-20T15:30:46.462Z,100549.63
2022-12-20T15:33:34.544Z,100554.94
2022-12-20T15:36:00.948Z,100559.25
2022-12-20T15:38:54.767Z,100558.03
2022-12-20T15:41:22.878Z,100555.09
2022-12-20T15:43:52.471Z,100543.06
2022-12-20T15:46:18.963Z,100557.53
2022-12-20T15:48:45.397Z,100562.88
2022-12-20T15:51:21.183Z,100567.78
2022-12-20T15:53:47.631Z,100574.19
2022-12-20T15:56:23.421Z,100578.72
2022-12-20T15:58:50.115Z,100567.75
2022-12-20T16:01:21.601Z,100562.66
2022-12-20T16:03:48.182Z,100549.81
2022-12-20T16:06:14.652Z,100555.97
2022-12-20T16:08:41.806Z,100555.13
2022-12-20T16:11:20.793Z,100550.88
2022-12-20T16:13:47.879Z,100538.56
2022-12-20T16:16:19.332Z,100543.63
2022-12-20T16:18:45.857Z,100533.44
2022-12-20T16:21:20.383Z,100529.19
2022-12-20T16:23:47.341Z,100532.53
2022-12-20T16:26:15.088Z,100538.91
2022-12-20T16:28:42.651Z,100535.91
2022-12-20T16:31:17.839Z,100538.22
2022-12-20T16:33:44.236Z,100534.38
2022-12-20T16:36:14.557Z,100531.63
2022-12-20T16:38:41.843Z,100530.16
2022-12-20T16:41:20.464Z,100532.53
2022-12-20T16:43:48.982Z,100532.53
2022-12-20T16:46:18.170Z,100539.09
2022-12-20T16:48:45.262Z,100540.19
2022-12-20T16:51:27.948Z,100533.00
2022-12-20T16:56:44.305Z,100534.50
2022-12-20T16:59:20.750Z,100539.84
2022-12-20T17:01:51.783Z,100529.28
2022-12-20T17:04:19.702Z,100528.03
2022-12-20T17:06:46.806Z,100535.25
2022-12-20T17:09:13.982Z,100532.50
2022-12-20T17:11:40.425Z,100529.34
2022-12-20T17:14:12.313Z,100523.00
2022-12-20T17:16:39.774Z,100514.34
2022-12-20T17:19:06.525Z,100522.81
2022-12-20T17:24:29.748Z,100515.91
2022-12-20T17:26:56.317Z,100520.34
2022-12-20T17:29:22.803Z,100532.44
2022-12-20T17:31:49.367Z,100526.28
2022-12-20T17:34:19.817Z,100526.06
2022-12-20T17:36:47.531Z,100526.94
2022-12-20T17:39:14.032Z,100521.41
2022-12-20T17:41:42.647Z,100525.88
2022-12-20T17:44:23.847Z,100520.34
2022-12-20T17:46:50.731Z,100521.56
2022-12-20T17:49:17.184Z,100513.50
2022-12-20T17:51:43.830Z,100514.13
2022-12-20T17:54:21.872Z,100508.75
2022-12-20T17:56:49.716Z,100507.88
2022-12-20T17:59:16.757Z,100507.16
2022-12-20T18:01:44.714Z,100507.13
2022-12-20T18:04:14.059Z,100506.22
2022-12-20T18:06:42.882Z,100503.16
2022-12-20T18:09:17.553Z,100507.75
2022-12-20T18:11:44.799Z,100502.63
2022-12-20T18:14:11.558Z,100507.69
2022-12-20T18:16:40.755Z,100504.72
2022-12-20T18:19:14.334Z,100505.94
2022-12-20T18:21:41.712Z,100504.25
2022-12-20T18:24:11.611Z,100502.81
2022-12-20T18:26:38.003Z,100515.34
2022-12-20T18:29:04.392Z,100506.69
2022-12-20T18:31:33.185Z,100501.00
2022-12-20T18:34:00.457Z,100508.50
2022-12-20T18:36:32.063Z,100506.66
2022-12-20T18:38:59.915Z,100501.00
2022-12-20T18:41:28.863Z,100498.22
2022-12-20T18:44:01.086Z,100488.59
2022-12-20T18:46:28.182Z,100480.75
2022-12-20T18:48:56.155Z,100479.09
2022-12-20T18:51:31.355Z,100489.94
2022-12-20T18:53:59.364Z,100486.63
2022-12-20T18:56:29.312Z,100484.09
2022-12-20T18:58:56.248Z,100484.31
2022-12-20T19:01:25.132Z,100488.97
2022-12-20T19:03:53.012Z,100484.78
2022-12-20T19:06:20.395Z,100489.88
2022-12-20T19:08:47.402Z,100491.78
2022-12-20T19:11:19.036Z,100492.63
2022-12-20T19:13:45.741Z,100481.63
2022-12-20T19:16:15.479Z,100479.47
2022-12-20T19:18:44.347Z,100490.50
2022-12-20T19:21:16.930Z,100496.19
2022-12-20T19:23:45.201Z,100484.09
2022-12-20T19:26:13.981Z,100475.38
2022-12-20T19:28:41.864Z,100464.97
2022-12-20T19:31:20.908Z,100468.34
2022-12-20T19:33:48.551Z,100470.25
2022-12-20T19:36:21.056Z,100467.91
2022-12-20T19:38:53.357Z,100462.38
2022-12-20T19:41:20.212Z,100461.31
2022-12-20T19:43:47.721Z,100458.56
2022-12-20T19:46:15.068Z,100457.06
2022-12-20T19:48:41.697Z,100457.19
2022-12-20T19:51:11.742Z,100461.84
2022-12-20T19:53:39.290Z,100450.44
2022-12-20T19:56:06.006Z,100454.31
2022-12-20T19:58:32.425Z,100451.16
2022-12-20T20:00:58.823Z,100456.22
2022-12-20T20:03:25.303Z,100448.16
2022-12-20T20:05:52.707Z,100450.06
2022-12-20T20:08:19.404Z,100452.38
2022-12-20T20:10:48.608Z,100445.31
2022-12-20T20:13:15.042Z,100445.13
2022-12-20T20:15:41.491Z,100453.97
2022-12-20T20:18:08.148Z,100452.91
2022-12-20T20:20:34.938Z,100457.97
2022-12-20T20:23:01.400Z,100463.25
2022-12-20T20:25:27.819Z,100461.75
2022-12-20T20:27:54.217Z,100444.97
2022-12-20T20:30:20.797Z,100449.78
2022-12-20T20:32:47.319Z,100439.16
2022-12-20T20:35:13.847Z,100438.09
2022-12-20T20:37:40.356Z,100442.28
2022-12-20T20:40:07.520Z,100432.28
2022-12-20T20:42:33.905Z,100427.75
2022-12-20T20:45:00.344Z,100435.94
2022-12-20T20:47:26.760Z,100427.81
2022-12-20T20:49:53.203Z,100428.19
2022-12-20T20:52:19.947Z,100429.41
2022-12-20T20:54:46.813Z,100423.22
2022-12-20T20:57:13.334Z,100433.22
2022-12-20T20:59:39.976Z,100433.22
2022-12-20T21:02:06.893Z,100423.84
2022-12-20T21:04:33.425Z,100419.41
2022-12-20T21:06:59.973Z,100420.66
2022-12-20T21:09:26.401Z,100423.69
2022-12-20T21:11:52.910Z,100421.38
2022-12-20T21:14:36.452Z,100413.34
2022-12-20T21:17:06.453Z,100418.94
2022-12-20T21:19:33.134Z,100413.06
2022-12-20T21:21:59.621Z,100410.97
2022-12-20T21:24:26.045Z,100422.47
2022-12-20T21:26:53.764Z,100414.03
2022-12-20T21:29:20.290Z,100412.59
2022-12-20T21:31:46.982Z,100414.97
2022-12-20T21:34:13.493Z,100406.09
2022-12-20T21:36:39.889Z,100410.75
2022-12-20T21:39:06.371Z,100405.69
2022-12-20T21:41:32.939Z,100401.50
2022-12-20T21:44:00.581Z,100393.44
2022-12-20T21:46:28.864Z,100399.22
2022-12-20T21:48:55.428Z,100409.59
2022-12-20T21:51:23.569Z,100398.59
2022-12-20T21:53:56.128Z,100415.13
2022-12-20T21:56:24.512Z,100417.28
2022-12-20T21:58:51.509Z,100411.75
2022-12-20T22:01:21.526Z,100402.66
2022-12-20T22:03:57.998Z,100400.94
2022-12-20T22:06:25.520Z,100405.03
2022-12-20T22:08:52.148Z,100401.63
2022-12-20T22:11:19.128Z,100403.31
2022-12-20T22:13:46.532Z,100400.34
2022-12-20T22:16:18.447Z,100404.19
2022-12-20T22:18:49.268Z,100397.59
2022-12-20T22:21:18.245Z,100397.34
2022-12-20T22:23:44.679Z,100400.09
2022-12-20T22:26:19.276Z,100395.22
2022-12-20T22:28:54.929Z,100406.47
2022-12-20T22:31:21.764Z,100409.22
2022-12-20T22:33:49.353Z,100402.44
2022-12-20T22:36:16.383Z,100399.44
2022-12-20T22:38:43.575Z,100400.88
2022-12-20T22:41:13.245Z,100396.00
2022-12-20T22:43:41.066Z,100395.75
2022-12-20T22:46:10.430Z,100390.22
2022-12-20T22:48:38.087Z,100392.78
2022-12-20T22:51:08.544Z,100397.22
2022-12-20T22:53:36.380Z,100384.03
2022-12-20T22:56:03.839Z,100388.25
2022-12-20T22:58:31.183Z,100388.00
2022-12-20T23:00:59.132Z,100391.41
2022-12-20T23:03:27.063Z,100393.69
2022-12-20T23:05:55.738Z,100394.53
2022-12-20T23:08:23.146Z,100390.47
2022-12-20T23:11:08.334Z,100398.25
2022-12-20T23:13:53.598Z,100398.25
2022-12-20T23:16:20.239Z,100388.94
2022-12-20T23:18:46.703Z,100383.78
2022-12-20T23:21:31.733Z,100398.44
2022-12-20T23:23:58.150Z,100405.38
2022-12-20T23:26:26.377Z,100403.25
2022-12-20T23:28:52.786Z,100398.13
2022-12-20T23:31:19.314Z,100395.72
2022-12-20T23:33:45.775Z,100391.66
2022-12-20T23:36:12.497Z,100394.19
2022-12-20T23:38:38.991Z,100392.25
2022-12-20T23:41:10.296Z,100395.00
2022-12-20T23:43:37.457Z,100387.00
2022-12-20T23:46:18.518Z,100394.41
2022-12-20T23:48:45.003Z,100389.97
2022-12-20T23:51:11.689Z,100394.63
2022-12-20T23:53:38.356Z,100394.63
2022-12-20T23:56:11.336Z,100399.34
2022-12-20T23:58:38.736Z,100409.53
